sensor_id;sensor_type;location;lat;lon;timestamp;P1;durP1;ratioP1;P2;durP2;ratioP2
25639;SDS011;13497;48.322;16.204;2023-12-07T00:01:09;34.47;;;28.90;;
25639;SDS011;13497;48.322;16.204;2023-12-07T00:03:34;31.63;;;26.25;;
25639;SDS011;13497;48.322;16.204;2023-12-07T00:06:00;31.48;;;24.13;;
25639;SDS011;13497;48.322;16.204;2023-12-07T00:08:26;31.58;;;23.90;;
25639;SDS011;13497;48.322;16.204;2023-12-07T00:10:52;26.23;;;22.48;;
25639;SDS011;13497;48.322;16.204;2023-12-07T00:13:18;28.50;;;22.42;;
25639;SDS011;13497;48.322;16.204;2023-12-07T00:15:43;27.65;;;24.75;;
25639;SDS011;13497;48.322;16.204;2023-12-07T00:18:09;34.15;;;30.65;;
25639;SDS011;13497;48.322;16.204;2023-12-07T00:20:35;24.95;;;19.92;;
25639;SDS011;13497;48.322;16.204;2023-12-07T00:23:00;25.33;;;22.00;;
25639;SDS011;13497;48.322;16.204;2023-12-07T00:25:26;25.92;;;22.38;;
25639;SDS011;13497;48.322;16.204;2023-12-07T00:27:52;26.52;;;19.90;;
25639;SDS011;13497;48.322;16.204;2023-12-07T00:30:17;22.95;;;19.70;;
25639;SDS011;13497;48.322;16.204;2023-12-07T00:32:43;22.85;;;18.48;;
25639;SDS011;13497;48.322;16.204;2023-12-07T00:35:09;24.23;;;19.30;;
25639;SDS011;13497;48.322;16.204;2023-12-07T00:37:35;22.35;;;16.98;;
25639;SDS011;13497;48.322;16.204;2023-12-07T00:40:01;23.73;;;17.77;;
25639;SDS011;13497;48.322;16.204;2023-12-07T00:42:29;23.58;;;19.90;;
25639;SDS011;13497;48.322;16.204;2023-12-07T00:44:55;25.00;;;20.80;;
25639;SDS011;13497;48.322;16.204;2023-12-07T00:47:21;26.95;;;24.67;;
25639;SDS011;13497;48.322;16.204;2023-12-07T00:49:46;22.85;;;17.70;;
25639;SDS011;13497;48.322;16.204;2023-12-07T00:52:12;17.85;;;15.55;;
25639;SDS011;13497;48.322;16.204;2023-12-07T00:54:38;18.67;;;16.60;;
25639;SDS011;13497;48.322;16.204;2023-12-07T00:57:04;20.80;;;18.80;;
25639;SDS011;13497;48.322;16.204;2023-12-07T00:59:30;18.55;;;16.55;;
25639;SDS011;13497;48.322;16.204;2023-12-07T01:02:01;16.38;;;13.68;;
25639;SDS011;13497;48.322;16.204;2023-12-07T01:04:28;19.70;;;17.80;;
25639;SDS011;13497;48.322;16.204;2023-12-07T01:06:54;20.15;;;14.98;;
25639;SDS011;13497;48.322;16.204;2023-12-07T01:09:20;17.58;;;13.13;;
25639;SDS011;13497;48.322;16.204;2023-12-07T01:11:47;15.98;;;14.30;;
25639;SDS011;13497;48.322;16.204;2023-12-07T01:14:13;17.05;;;15.38;;
25639;SDS011;13497;48.322;16.204;2023-12-07T01:16:38;14.43;;;13.10;;
25639;SDS011;13497;48.322;16.204;2023-12-07T01:19:04;21.60;;;19.83;;
25639;SDS011;13497;48.322;16.204;2023-12-07T01:21:30;15.20;;;12.93;;
25639;SDS011;13497;48.322;16.204;2023-12-07T01:23:56;13.77;;;12.35;;
25639;SDS011;13497;48.322;16.204;2023-12-07T01:26:23;15.07;;;13.60;;
25639;SDS011;13497;48.322;16.204;2023-12-07T01:28:49;12.45;;;11.23;;
25639;SDS011;13497;48.322;16.204;2023-12-07T01:31:14;13.85;;;12.55;;
25639;SDS011;13497;48.322;16.204;2023-12-07T01:33:40;12.00;;;10.80;;
25639;SDS011;13497;48.322;16.204;2023-12-07T01:36:06;11.73;;;10.55;;
25639;SDS011;13497;48.322;16.204;2023-12-07T01:38:32;12.25;;;11.15;;
25639;SDS011;13497;48.322;16.204;2023-12-07T01:40:58;13.75;;;12.50;;
25639;SDS011;13497;48.322;16.204;2023-12-07T01:43:24;11.05;;;10.02;;
25639;SDS011;13497;48.322;16.204;2023-12-07T01:45:49;15.25;;;14.07;;
25639;SDS011;13497;48.322;16.204;2023-12-07T01:48:19;10.95;;;9.95;;
25639;SDS011;13497;48.322;16.204;2023-12-07T01:50:46;16.98;;;15.70;;
25639;SDS011;13497;48.322;16.204;2023-12-07T01:53:12;11.43;;;10.43;;
25639;SDS011;13497;48.322;16.204;2023-12-07T01:55:39;11.25;;;10.25;;
25639;SDS011;13497;48.322;16.204;2023-12-07T01:58:06;11.88;;;10.73;;
25639;SDS011;13497;48.322;16.204;2023-12-07T02:00:32;13.25;;;12.05;;
25639;SDS011;13497;48.322;16.204;2023-12-07T02:02:58;31.05;;;27.73;;
25639;SDS011;13497;48.322;16.204;2023-12-07T02:05:26;36.85;;;32.95;;
25639;SDS011;13497;48.322;16.204;2023-12-07T02:07:51;28.42;;;25.60;;
25639;SDS011;13497;48.322;16.204;2023-12-07T02:10:18;60.90;;;47.80;;
25639;SDS011;13497;48.322;16.204;2023-12-07T02:12:44;121.88;;;83.40;;
25639;SDS011;13497;48.322;16.204;2023-12-07T02:17:55;141.88;;;81.85;;
25639;SDS011;13497;48.322;16.204;2023-12-07T02:23:30;66.63;;;50.70;;
25639;SDS011;13497;48.322;16.204;2023-12-07T02:25:59;17.58;;;15.88;;
25639;SDS011;13497;48.322;16.204;2023-12-07T02:28:28;13.73;;;12.52;;
25639;SDS011;13497;48.322;16.204;2023-12-07T02:30:53;15.60;;;14.05;;
25639;SDS011;13497;48.322;16.204;2023-12-07T02:33:19;13.30;;;12.02;;
25639;SDS011;13497;48.322;16.204;2023-12-07T02:35:45;10.80;;;9.88;;
25639;SDS011;13497;48.322;16.204;2023-12-07T02:38:11;12.18;;;11.15;;
25639;SDS011;13497;48.322;16.204;2023-12-07T02:40:37;13.98;;;12.75;;
25639;SDS011;13497;48.322;16.204;2023-12-07T02:43:05;14.70;;;13.48;;
25639;SDS011;13497;48.322;16.204;2023-12-07T02:45:33;11.27;;;10.27;;
25639;SDS011;13497;48.322;16.204;2023-12-07T02:47:59;8.30;;;7.47;;
25639;SDS011;13497;48.322;16.204;2023-12-07T02:50:24;10.27;;;9.35;;
25639;SDS011;13497;48.322;16.204;2023-12-07T02:52:50;9.48;;;8.60;;
25639;SDS011;13497;48.322;16.204;2023-12-07T02:55:16;9.52;;;8.63;;
25639;SDS011;13497;48.322;16.204;2023-12-07T02:57:42;11.50;;;9.93;;
25639;SDS011;13497;48.322;16.204;2023-12-07T03:00:08;10.82;;;9.75;;
25639;SDS011;13497;48.322;16.204;2023-12-07T03:02:35;9.90;;;9.07;;
25639;SDS011;13497;48.322;16.204;2023-12-07T03:05:02;12.02;;;10.98;;
25639;SDS011;13497;48.322;16.204;2023-12-07T03:07:29;10.27;;;9.13;;
25639;SDS011;13497;48.322;16.204;2023-12-07T03:09:55;18.13;;;16.83;;
25639;SDS011;13497;48.322;16.204;2023-12-07T03:12:20;17.42;;;16.17;;
25639;SDS011;13497;48.322;16.204;2023-12-07T03:14:46;9.38;;;8.50;;
25639;SDS011;13497;48.322;16.204;2023-12-07T03:17:12;9.02;;;8.13;;
25639;SDS011;13497;48.322;16.204;2023-12-07T03:19:38;10.00;;;9.15;;
25639;SDS011;13497;48.322;16.204;2023-12-07T03:22:04;10.85;;;9.82;;
25639;SDS011;13497;48.322;16.204;2023-12-07T03:24:34;13.98;;;12.90;;
25639;SDS011;13497;48.322;16.204;2023-12-07T03:27:00;10.75;;;9.70;;
25639;SDS011;13497;48.322;16.204;2023-12-07T03:29:26;11.88;;;10.88;;
25639;SDS011;13497;48.322;16.204;2023-12-07T03:31:51;23.70;;;22.20;;
25639;SDS011;13497;48.322;16.204;2023-12-07T03:34:17;12.93;;;11.82;;
25639;SDS011;13497;48.322;16.204;2023-12-07T03:36:46;10.52;;;9.52;;
25639;SDS011;13497;48.322;16.204;2023-12-07T03:39:16;14.88;;;13.63;;
25639;SDS011;13497;48.322;16.204;2023-12-07T03:41:47;12.75;;;11.65;;
25639;SDS011;13497;48.322;16.204;2023-12-07T03:44:13;11.75;;;10.68;;
25639;SDS011;13497;48.322;16.204;2023-12-07T03:46:40;12.25;;;11.15;;
25639;SDS011;13497;48.322;16.204;2023-12-07T03:49:05;24.33;;;22.60;;
25639;SDS011;13497;48.322;16.204;2023-12-07T03:51:31;12.80;;;11.52;;
25639;SDS011;13497;48.322;16.204;2023-12-07T03:53:57;15.65;;;14.35;;
25639;SDS011;13497;48.322;16.204;2023-12-07T03:56:26;11.32;;;10.30;;
25639;SDS011;13497;48.322;16.204;2023-12-07T03:58:52;9.85;;;8.95;;
25639;SDS011;13497;48.322;16.204;2023-12-07T04:01:22;11.70;;;10.63;;
25639;SDS011;13497;48.322;16.204;2023-12-07T04:03:48;8.88;;;8.00;;
25639;SDS011;13497;48.322;16.204;2023-12-07T04:06:14;13.88;;;12.75;;
25639;SDS011;13497;48.322;16.204;2023-12-07T04:08:40;9.73;;;8.73;;
25639;SDS011;13497;48.322;16.204;2023-12-07T04:11:06;18.58;;;17.27;;
25639;SDS011;13497;48.322;16.204;2023-12-07T04:13:31;9.82;;;8.90;;
25639;SDS011;13497;48.322;16.204;2023-12-07T04:15:57;10.25;;;9.30;;
25639;SDS011;13497;48.322;16.204;2023-12-07T04:18:23;10.38;;;9.38;;
25639;SDS011;13497;48.322;16.204;2023-12-07T04:20:49;12.02;;;10.93;;
25639;SDS011;13497;48.322;16.204;2023-12-07T04:23:15;19.27;;;17.83;;
25639;SDS011;13497;48.322;16.204;2023-12-07T04:25:40;14.50;;;13.30;;
25639;SDS011;13497;48.322;16.204;2023-12-07T04:28:06;9.73;;;8.88;;
25639;SDS011;13497;48.322;16.204;2023-12-07T04:30:32;10.80;;;9.80;;
25639;SDS011;13497;48.322;16.204;2023-12-07T04:32:58;10.85;;;9.40;;
25639;SDS011;13497;48.322;16.204;2023-12-07T04:35:23;18.67;;;17.35;;
25639;SDS011;13497;48.322;16.204;2023-12-07T04:37:49;11.48;;;10.07;;
25639;SDS011;13497;48.322;16.204;2023-12-07T04:40:14;11.05;;;9.98;;
25639;SDS011;13497;48.322;16.204;2023-12-07T04:42:41;12.45;;;11.35;;
25639;SDS011;13497;48.322;16.204;2023-12-07T04:45:06;12.05;;;10.95;;
25639;SDS011;13497;48.322;16.204;2023-12-07T04:47:32;12.98;;;11.88;;
25639;SDS011;13497;48.322;16.204;2023-12-07T04:49:58;10.82;;;9.80;;
25639;SDS011;13497;48.322;16.204;2023-12-07T04:52:24;11.57;;;10.65;;
25639;SDS011;13497;48.322;16.204;2023-12-07T04:54:51;11.32;;;10.25;;
25639;SDS011;13497;48.322;16.204;2023-12-07T04:57:16;12.18;;;10.88;;
25639;SDS011;13497;48.322;16.204;2023-12-07T04:59:42;12.60;;;11.48;;
25639;SDS011;13497;48.322;16.204;2023-12-07T05:02:13;12.45;;;11.27;;
25639;SDS011;13497;48.322;16.204;2023-12-07T05:04:39;13.02;;;11.35;;
25639;SDS011;13497;48.322;16.204;2023-12-07T05:07:04;10.48;;;9.48;;
25639;SDS011;13497;48.322;16.204;2023-12-07T05:09:30;13.40;;;12.10;;
25639;SDS011;13497;48.322;16.204;2023-12-07T05:11:56;10.52;;;9.60;;
25639;SDS011;13497;48.322;16.204;2023-12-07T05:14:22;11.60;;;10.60;;
25639;SDS011;13497;48.322;16.204;2023-12-07T05:16:48;10.90;;;9.80;;
25639;SDS011;13497;48.322;16.204;2023-12-07T05:19:17;10.55;;;9.52;;
25639;SDS011;13497;48.322;16.204;2023-12-07T05:21:45;12.35;;;11.27;;
25639;SDS011;13497;48.322;16.204;2023-12-07T05:24:12;11.07;;;10.00;;
25639;SDS011;13497;48.322;16.204;2023-12-07T05:26:38;11.07;;;9.85;;
25639;SDS011;13497;48.322;16.204;2023-12-07T05:29:05;16.90;;;15.60;;
25639;SDS011;13497;48.322;16.204;2023-12-07T05:31:31;10.70;;;9.60;;
25639;SDS011;13497;48.322;16.204;2023-12-07T05:33:57;12.40;;;11.32;;
25639;SDS011;13497;48.322;16.204;2023-12-07T05:36:22;14.40;;;13.05;;
25639;SDS011;13497;48.322;16.204;2023-12-07T05:38:48;12.07;;;10.65;;
25639;SDS011;13497;48.322;16.204;2023-12-07T05:41:13;12.40;;;11.20;;
25639;SDS011;13497;48.322;16.204;2023-12-07T05:43:42;12.73;;;11.50;;
25639;SDS011;13497;48.322;16.204;2023-12-07T05:46:08;11.00;;;9.82;;
25639;SDS011;13497;48.322;16.204;2023-12-07T05:48:34;14.43;;;13.13;;
25639;SDS011;13497;48.322;16.204;2023-12-07T05:51:01;11.60;;;10.43;;
25639;SDS011;13497;48.322;16.204;2023-12-07T05:53:27;11.88;;;10.77;;
25639;SDS011;13497;48.322;16.204;2023-12-07T05:55:54;13.10;;;11.90;;
25639;SDS011;13497;48.322;16.204;2023-12-07T05:58:19;11.00;;;9.90;;
25639;SDS011;13497;48.322;16.204;2023-12-07T06:00:45;12.50;;;11.30;;
25639;SDS011;13497;48.322;16.204;2023-12-07T06:03:12;11.00;;;9.90;;
25639;SDS011;13497;48.322;16.204;2023-12-07T06:05:38;11.80;;;10.68;;
25639;SDS011;13497;48.322;16.204;2023-12-07T06:08:05;14.88;;;13.57;;
25639;SDS011;13497;48.322;16.204;2023-12-07T06:10:31;10.25;;;9.20;;
25639;SDS011;13497;48.322;16.204;2023-12-07T06:12:57;11.70;;;10.57;;
25639;SDS011;13497;48.322;16.204;2023-12-07T06:15:25;12.10;;;10.93;;
25639;SDS011;13497;48.322;16.204;2023-12-07T06:17:52;10.80;;;9.65;;
25639;SDS011;13497;48.322;16.204;2023-12-07T06:22:45;11.18;;;10.10;;
25639;SDS011;13497;48.322;16.204;2023-12-07T06:25:11;12.35;;;11.15;;
25639;SDS011;13497;48.322;16.204;2023-12-07T06:27:36;12.48;;;11.38;;
25639;SDS011;13497;48.322;16.204;2023-12-07T06:30:03;12.57;;;11.40;;
25639;SDS011;13497;48.322;16.204;2023-12-07T06:32:32;18.70;;;16.90;;
25639;SDS011;13497;48.322;16.204;2023-12-07T06:34:59;21.58;;;16.85;;
25639;SDS011;13497;48.322;16.204;2023-12-07T06:37:25;17.75;;;15.52;;
25639;SDS011;13497;48.322;16.204;2023-12-07T06:39:52;12.38;;;11.10;;
25639;SDS011;13497;48.322;16.204;2023-12-07T06:42:17;14.93;;;12.32;;
25639;SDS011;13497;48.322;16.204;2023-12-07T06:44:43;16.17;;;14.65;;
25639;SDS011;13497;48.322;16.204;2023-12-07T06:47:14;13.88;;;12.45;;
25639;SDS011;13497;48.322;16.204;2023-12-07T06:49:40;13.20;;;12.00;;
25639;SDS011;13497;48.322;16.204;2023-12-07T06:52:06;14.30;;;12.80;;
25639;SDS011;13497;48.322;16.204;2023-12-07T06:54:32;12.88;;;11.55;;
25639;SDS011;13497;48.322;16.204;2023-12-07T06:56:58;12.02;;;10.73;;
25639;SDS011;13497;48.322;16.204;2023-12-07T06:59:24;12.52;;;11.23;;
25639;SDS011;13497;48.322;16.204;2023-12-07T07:01:51;12.52;;;11.43;;
25639;SDS011;13497;48.322;16.204;2023-12-07T07:04:17;12.02;;;10.73;;
25639;SDS011;13497;48.322;16.204;2023-12-07T07:06:43;21.05;;;19.55;;
25639;SDS011;13497;48.322;16.204;2023-12-07T07:09:09;14.57;;;13.27;;
25639;SDS011;13497;48.322;16.204;2023-12-07T07:11:34;13.95;;;12.65;;
25639;SDS011;13497;48.322;16.204;2023-12-07T07:16:27;15.05;;;13.65;;
25639;SDS011;13497;48.322;16.204;2023-12-07T07:18:53;12.45;;;10.82;;
25639;SDS011;13497;48.322;16.204;2023-12-07T07:21:18;15.23;;;13.75;;
25639;SDS011;13497;48.322;16.204;2023-12-07T07:23:47;15.10;;;13.80;;
25639;SDS011;13497;48.322;16.204;2023-12-07T07:26:12;13.48;;;11.32;;
25639;SDS011;13497;48.322;16.204;2023-12-07T07:28:43;13.27;;;12.05;;
25639;SDS011;13497;48.322;16.204;2023-12-07T07:31:08;12.32;;;11.13;;
25639;SDS011;13497;48.322;16.204;2023-12-07T07:33:34;14.98;;;13.57;;
25639;SDS011;13497;48.322;16.204;2023-12-07T07:36:00;20.92;;;19.23;;
25639;SDS011;13497;48.322;16.204;2023-12-07T07:38:25;19.33;;;17.88;;
25639;SDS011;13497;48.322;16.204;2023-12-07T07:40:51;12.77;;;11.52;;
25639;SDS011;13497;48.322;16.204;2023-12-07T07:43:17;15.07;;;13.75;;
25639;SDS011;13497;48.322;16.204;2023-12-07T07:45:43;12.43;;;11.25;;
25639;SDS011;13497;48.322;16.204;2023-12-07T07:48:10;28.35;;;25.90;;
25639;SDS011;13497;48.322;16.204;2023-12-07T07:50:35;13.88;;;12.68;;
25639;SDS011;13497;48.322;16.204;2023-12-07T07:53:02;14.43;;;13.05;;
25639;SDS011;13497;48.322;16.204;2023-12-07T07:55:29;14.05;;;12.77;;
25639;SDS011;13497;48.322;16.204;2023-12-07T07:57:56;17.35;;;15.77;;
25639;SDS011;13497;48.322;16.204;2023-12-07T08:00:21;13.35;;;12.23;;
25639;SDS011;13497;48.322;16.204;2023-12-07T08:02:50;12.43;;;11.25;;
25639;SDS011;13497;48.322;16.204;2023-12-07T08:05:16;12.00;;;10.80;;
25639;SDS011;13497;48.322;16.204;2023-12-07T08:07:42;13.48;;;12.35;;
25639;SDS011;13497;48.322;16.204;2023-12-07T08:10:08;14.40;;;13.27;;
25639;SDS011;13497;48.322;16.204;2023-12-07T08:12:34;13.23;;;11.98;;
25639;SDS011;13497;48.322;16.204;2023-12-07T08:15:00;13.90;;;12.48;;
25639;SDS011;13497;48.322;16.204;2023-12-07T08:17:26;11.95;;;10.60;;
25639;SDS011;13497;48.322;16.204;2023-12-07T08:19:52;11.43;;;9.95;;
25639;SDS011;13497;48.322;16.204;2023-12-07T08:22:18;11.52;;;10.30;;
25639;SDS011;13497;48.322;16.204;2023-12-07T08:24:45;13.20;;;11.90;;
25639;SDS011;13497;48.322;16.204;2023-12-07T08:27:11;13.20;;;11.90;;
25639;SDS011;13497;48.322;16.204;2023-12-07T08:29:37;13.82;;;12.32;;
25639;SDS011;13497;48.322;16.204;2023-12-07T08:32:02;32.90;;;30.13;;
25639;SDS011;13497;48.322;16.204;2023-12-07T08:34:29;27.58;;;25.75;;
25639;SDS011;13497;48.322;16.204;2023-12-07T08:36:54;13.55;;;12.27;;
25639;SDS011;13497;48.322;16.204;2023-12-07T08:39:20;15.55;;;14.00;;
25639;SDS011;13497;48.322;16.204;2023-12-07T08:41:46;15.32;;;11.88;;
25639;SDS011;13497;48.322;16.204;2023-12-07T08:44:12;16.80;;;14.98;;
25639;SDS011;13497;48.322;16.204;2023-12-07T08:46:38;14.45;;;12.25;;
25639;SDS011;13497;48.322;16.204;2023-12-07T08:49:03;14.30;;;12.80;;
25639;SDS011;13497;48.322;16.204;2023-12-07T08:51:29;22.60;;;20.83;;
25639;SDS011;13497;48.322;16.204;2023-12-07T08:53:55;15.23;;;13.73;;
25639;SDS011;13497;48.322;16.204;2023-12-07T08:56:20;9.00;;;7.85;;
25639;SDS011;13497;48.322;16.204;2023-12-07T08:58:46;17.23;;;15.82;;
25639;SDS011;13497;48.322;16.204;2023-12-07T09:01:12;13.25;;;11.90;;
25639;SDS011;13497;48.322;16.204;2023-12-07T09:03:38;14.73;;;12.48;;
25639;SDS011;13497;48.322;16.204;2023-12-07T09:06:03;14.45;;;13.13;;
25639;SDS011;13497;48.322;16.204;2023-12-07T09:08:30;17.55;;;16.15;;
25639;SDS011;13497;48.322;16.204;2023-12-07T09:10:56;15.10;;;13.75;;
25639;SDS011;13497;48.322;16.204;2023-12-07T09:13:22;15.23;;;13.90;;
25639;SDS011;13497;48.322;16.204;2023-12-07T09:15:47;15.73;;;14.23;;
25639;SDS011;13497;48.322;16.204;2023-12-07T09:18:13;16.05;;;14.38;;
25639;SDS011;13497;48.322;16.204;2023-12-07T09:20:39;12.90;;;11.32;;
25639;SDS011;13497;48.322;16.204;2023-12-07T09:23:11;15.02;;;13.50;;
25639;SDS011;13497;48.322;16.204;2023-12-07T09:25:38;14.88;;;13.50;;
25639;SDS011;13497;48.322;16.204;2023-12-07T09:28:04;14.02;;;12.63;;
25639;SDS011;13497;48.322;16.204;2023-12-07T09:30:30;17.52;;;15.80;;
25639;SDS011;13497;48.322;16.204;2023-12-07T09:32:55;16.90;;;15.15;;
25639;SDS011;13497;48.322;16.204;2023-12-07T09:35:21;13.32;;;12.00;;
25639;SDS011;13497;48.322;16.204;2023-12-07T09:37:48;12.93;;;11.57;;
25639;SDS011;13497;48.322;16.204;2023-12-07T09:42:47;13.00;;;11.75;;
25639;SDS011;13497;48.322;16.204;2023-12-07T09:45:13;15.95;;;14.60;;
25639;SDS011;13497;48.322;16.204;2023-12-07T09:47:41;13.40;;;11.80;;
25639;SDS011;13497;48.322;16.204;2023-12-07T09:50:08;12.60;;;10.52;;
25639;SDS011;13497;48.322;16.204;2023-12-07T09:52:35;16.17;;;14.73;;
25639;SDS011;13497;48.322;16.204;2023-12-07T09:55:02;12.25;;;11.05;;
25639;SDS011;13497;48.322;16.204;2023-12-07T09:57:28;11.73;;;10.57;;
25639;SDS011;13497;48.322;16.204;2023-12-07T09:59:54;12.57;;;11.32;;
25639;SDS011;13497;48.322;16.204;2023-12-07T10:02:20;11.38;;;10.25;;
25639;SDS011;13497;48.322;16.204;2023-12-07T10:04:47;13.40;;;12.10;;
25639;SDS011;13497;48.322;16.204;2023-12-07T10:07:13;13.40;;;12.10;;
25639;SDS011;13497;48.322;16.204;2023-12-07T10:09:39;12.35;;;11.15;;
25639;SDS011;13497;48.322;16.204;2023-12-07T10:12:06;12.93;;;11.65;;
25639;SDS011;13497;48.322;16.204;2023-12-07T10:14:32;13.77;;;11.38;;
25639;SDS011;13497;48.322;16.204;2023-12-07T10:16:59;11.55;;;10.35;;
25639;SDS011;13497;48.322;16.204;2023-12-07T10:19:25;13.07;;;11.88;;
25639;SDS011;13497;48.322;16.204;2023-12-07T10:21:52;13.10;;;11.77;;
25639;SDS011;13497;48.322;16.204;2023-12-07T10:24:19;13.07;;;11.77;;
25639;SDS011;13497;48.322;16.204;2023-12-07T10:26:47;14.75;;;13.25;;
25639;SDS011;13497;48.322;16.204;2023-12-07T10:29:14;12.68;;;10.73;;
25639;SDS011;13497;48.322;16.204;2023-12-07T10:31:42;12.65;;;11.45;;
25639;SDS011;13497;48.322;16.204;2023-12-07T10:34:09;11.85;;;10.65;;
25639;SDS011;13497;48.322;16.204;2023-12-07T10:36:34;11.85;;;10.73;;
25639;SDS011;13497;48.322;16.204;2023-12-07T10:39:00;14.13;;;12.82;;
25639;SDS011;13497;48.322;16.204;2023-12-07T10:41:26;12.57;;;11.35;;
25639;SDS011;13497;48.322;16.204;2023-12-07T10:43:53;15.35;;;13.85;;
25639;SDS011;13497;48.322;16.204;2023-12-07T10:46:25;13.02;;;11.80;;
25639;SDS011;13497;48.322;16.204;2023-12-07T10:48:57;12.73;;;11.52;;
25639;SDS011;13497;48.322;16.204;2023-12-07T10:54:00;13.20;;;11.88;;
25639;SDS011;13497;48.322;16.204;2023-12-07T10:56:29;14.85;;;13.35;;
25639;SDS011;13497;48.322;16.204;2023-12-07T10:59:18;13.50;;;12.20;;
25639;SDS011;13497;48.322;16.204;2023-12-07T11:01:45;12.85;;;11.65;;
25639;SDS011;13497;48.322;16.204;2023-12-07T11:04:13;16.25;;;14.75;;
25639;SDS011;13497;48.322;16.204;2023-12-07T11:06:40;16.42;;;14.73;;
25639;SDS011;13497;48.322;16.204;2023-12-07T11:09:08;13.70;;;12.40;;
25639;SDS011;13497;48.322;16.204;2023-12-07T11:11:43;13.82;;;12.45;;
25639;SDS011;13497;48.322;16.204;2023-12-07T11:14:29;13.48;;;12.15;;
25639;SDS011;13497;48.322;16.204;2023-12-07T11:16:55;14.52;;;13.02;;
25639;SDS011;13497;48.322;16.204;2023-12-07T11:22:08;14.18;;;12.70;;
25639;SDS011;13497;48.322;16.204;2023-12-07T11:24:51;13.07;;;11.23;;
25639;SDS011;13497;48.322;16.204;2023-12-07T11:27:28;14.85;;;13.30;;
25639;SDS011;13497;48.322;16.204;2023-12-07T11:29:58;12.82;;;11.15;;
25639;SDS011;13497;48.322;16.204;2023-12-07T11:32:27;16.48;;;14.82;;
25639;SDS011;13497;48.322;16.204;2023-12-07T11:34:53;14.13;;;12.70;;
25639;SDS011;13497;48.322;16.204;2023-12-07T11:37:19;20.77;;;19.08;;
25639;SDS011;13497;48.322;16.204;2023-12-07T11:39:45;14.95;;;13.45;;
25639;SDS011;13497;48.322;16.204;2023-12-07T11:42:11;18.92;;;13.15;;
25639;SDS011;13497;48.322;16.204;2023-12-07T11:44:40;16.27;;;14.50;;
25639;SDS011;13497;48.322;16.204;2023-12-07T11:47:07;15.45;;;13.70;;
25639;SDS011;13497;48.322;16.204;2023-12-07T11:49:34;12.63;;;11.40;;
25639;SDS011;13497;48.322;16.204;2023-12-07T11:52:01;17.55;;;12.50;;
25639;SDS011;13497;48.322;16.204;2023-12-07T11:54:47;16.05;;;14.40;;
25639;SDS011;13497;48.322;16.204;2023-12-07T11:57:14;18.08;;;16.20;;
25639;SDS011;13497;48.322;16.204;2023-12-07T11:59:42;16.60;;;14.02;;
25639;SDS011;13497;48.322;16.204;2023-12-07T12:02:12;15.07;;;13.65;;
25639;SDS011;13497;48.322;16.204;2023-12-07T12:04:38;12.57;;;10.70;;
25639;SDS011;13497;48.322;16.204;2023-12-07T12:07:06;12.45;;;10.90;;
25639;SDS011;13497;48.322;16.204;2023-12-07T12:09:33;14.35;;;13.05;;
25639;SDS011;13497;48.322;16.204;2023-12-07T12:11:59;13.20;;;11.80;;
25639;SDS011;13497;48.322;16.204;2023-12-07T12:14:25;13.18;;;11.48;;
25639;SDS011;13497;48.322;16.204;2023-12-07T12:16:52;13.15;;;11.60;;
25639;SDS011;13497;48.322;16.204;2023-12-07T12:19:18;13.55;;;12.15;;
25639;SDS011;13497;48.322;16.204;2023-12-07T12:21:44;14.55;;;13.25;;
25639;SDS011;13497;48.322;16.204;2023-12-07T12:24:11;14.15;;;12.85;;
25639;SDS011;13497;48.322;16.204;2023-12-07T12:26:39;23.17;;;21.23;;
25639;SDS011;13497;48.322;16.204;2023-12-07T12:29:06;12.88;;;11.18;;
25639;SDS011;13497;48.322;16.204;2023-12-07T12:31:36;12.00;;;10.80;;
25639;SDS011;13497;48.322;16.204;2023-12-07T12:34:02;23.50;;;21.80;;
25639;SDS011;13497;48.322;16.204;2023-12-07T12:36:30;12.23;;;11.02;;
25639;SDS011;13497;48.322;16.204;2023-12-07T12:38:56;11.38;;;9.27;;
25639;SDS011;13497;48.322;16.204;2023-12-07T12:41:22;12.32;;;11.13;;
25639;SDS011;13497;48.322;16.204;2023-12-07T12:43:48;21.17;;;19.48;;
25639;SDS011;13497;48.322;16.204;2023-12-07T12:46:15;11.75;;;10.65;;
25639;SDS011;13497;48.322;16.204;2023-12-07T12:49:00;14.98;;;13.52;;
25639;SDS011;13497;48.322;16.204;2023-12-07T12:51:29;11.52;;;10.13;;
25639;SDS011;13497;48.322;16.204;2023-12-07T12:53:59;13.20;;;11.98;;
25639;SDS011;13497;48.322;16.204;2023-12-07T12:56:26;13.38;;;11.98;;
25639;SDS011;13497;48.322;16.204;2023-12-07T12:58:53;19.83;;;18.15;;
25639;SDS011;13497;48.322;16.204;2023-12-07T13:01:22;13.88;;;12.48;;
25639;SDS011;13497;48.322;16.204;2023-12-07T13:03:48;12.57;;;11.38;;
25639;SDS011;13497;48.322;16.204;2023-12-07T13:06:14;14.38;;;13.02;;
25639;SDS011;13497;48.322;16.204;2023-12-07T13:08:42;13.52;;;12.15;;
25639;SDS011;13497;48.322;16.204;2023-12-07T13:11:09;14.40;;;13.07;;
25639;SDS011;13497;48.322;16.204;2023-12-07T13:13:39;15.20;;;13.27;;
25639;SDS011;13497;48.322;16.204;2023-12-07T13:16:06;15.43;;;11.02;;
25639;SDS011;13497;48.322;16.204;2023-12-07T13:18:31;14.88;;;13.45;;
25639;SDS011;13497;48.322;16.204;2023-12-07T13:20:57;15.60;;;13.35;;
25639;SDS011;13497;48.322;16.204;2023-12-07T13:25:50;12.65;;;11.43;;
25639;SDS011;13497;48.322;16.204;2023-12-07T13:28:16;12.70;;;11.40;;
25639;SDS011;13497;48.322;16.204;2023-12-07T13:30:41;15.45;;;14.15;;
25639;SDS011;13497;48.322;16.204;2023-12-07T13:33:07;14.82;;;12.98;;
25639;SDS011;13497;48.322;16.204;2023-12-07T13:35:34;13.68;;;12.30;;
25639;SDS011;13497;48.322;16.204;2023-12-07T13:38:00;14.80;;;13.23;;
25639;SDS011;13497;48.322;16.204;2023-12-07T13:40:26;14.70;;;13.38;;
25639;SDS011;13497;48.322;16.204;2023-12-07T13:42:52;12.98;;;10.88;;
25639;SDS011;13497;48.322;16.204;2023-12-07T13:45:18;12.98;;;11.68;;
25639;SDS011;13497;48.322;16.204;2023-12-07T13:47:44;13.68;;;11.82;;
25639;SDS011;13497;48.322;16.204;2023-12-07T13:50:10;13.40;;;12.00;;
25639;SDS011;13497;48.322;16.204;2023-12-07T13:52:36;12.70;;;11.30;;
25639;SDS011;13497;48.322;16.204;2023-12-07T13:55:03;11.88;;;10.38;;
25639;SDS011;13497;48.322;16.204;2023-12-07T13:57:29;15.23;;;11.10;;
25639;SDS011;13497;48.322;16.204;2023-12-07T13:59:55;12.50;;;11.20;;
25639;SDS011;13497;48.322;16.204;2023-12-07T14:02:21;19.08;;;17.52;;
25639;SDS011;13497;48.322;16.204;2023-12-07T14:04:48;11.38;;;10.18;;
25639;SDS011;13497;48.322;16.204;2023-12-07T14:07:15;14.13;;;12.70;;
25639;SDS011;13497;48.322;16.204;2023-12-07T14:09:44;13.18;;;11.93;;
25639;SDS011;13497;48.322;16.204;2023-12-07T14:12:11;15.35;;;11.73;;
25639;SDS011;13497;48.322;16.204;2023-12-07T14:14:39;12.68;;;11.32;;
25639;SDS011;13497;48.322;16.204;2023-12-07T14:17:05;14.85;;;13.45;;
25639;SDS011;13497;48.322;16.204;2023-12-07T14:19:31;15.02;;;12.80;;
25639;SDS011;13497;48.322;16.204;2023-12-07T14:21:57;15.27;;;13.75;;
25639;SDS011;13497;48.322;16.204;2023-12-07T14:24:24;13.15;;;11.82;;
25639;SDS011;13497;48.322;16.204;2023-12-07T14:26:50;13.60;;;11.80;;
25639;SDS011;13497;48.322;16.204;2023-12-07T14:29:16;13.25;;;11.52;;